x

Cape Elizabeth- 45nm Nw Of Aberdeen, Wa (46041) Wave Buoy

11:50am - Mon 23rd Oct 2017 All times are PDT. -7 hours from GMT.

  • Sig Wave height 10.8ft
  • Swell Direction
  • Peak Period 14s
  • Average Period 9s
  • Wind
    11mph, 16mph gusts
  • Sea Temp 52°f
  • Air Temp 54°f
  • Sea Pressure 1035.6mb
  • Cape Elizabeth- 45nm Nw Of Aberdeen, Wa
  • Cape Elizabeth- 45nm Nw Of Aberdeen, Wa

More Historic Weather Station data

Upgrade to MSW Pro to gain access to the past 30 days of data for over 8000 Wavebouys and Weather Stations around the globe.

Join

Comparision Forecast

View Surf forecast
   
Mon 10/23 11:50am 11ft 14s 9s 11 16 mph 1035.6mb 52f 54f
10:50am 11ft 13s 9s 13 20 mph 1035.2mb 52f 53f
9:50am 12ft 13s 9s 16 20 mph 1034.9mb 52f 53f
8:50am 13ft 13s 9s 16 20 mph 1034.2mb 52f 53f
7:50am 13ft 13s 9s 16 20 mph 1033.8mb 53f 52f
6:50am 13ft 13s 9s 18 22 mph 1033.4mb 53f 52f
5:50am 12ft 13s 9s 18 25 mph 1032.8mb 53f 52f
4:50am 13ft 14s 10s 18 22 mph 1032.6mb 53f 51f
3:50am 12ft 13s 10s 16 20 mph 1032.2mb 53f 52f
2:50am 12.5ft 13s 9s 13 18 mph 1032.1mb 53f 53f
1:50am 11ft 12s 9s 11 16 mph 1031.5mb 53f 53f
12:50am 13ft 14s 9s 7 9 mph 1031mb 53f 54f
Sun 10/22 11:50pm 12ft 14s 9s 7 9 mph 1030.5mb 53f 53f
10:50pm 14ft 13s 10s 4 7 mph 1030.1mb 53f 53f
9:50pm 13.5ft 13s 9s 7 9 mph 1029.4mb 53f 53f
8:50pm 13.5ft 13s 9s 7 9 mph 1028.9mb 53f 53f
7:50pm 14ft 11s 9s 7 7 mph 1028.4mb 53f 54f
6:50pm 15.5ft 11s 9s 4 7 mph 1027.4mb 53f 53f
5:50pm 15.5ft 12s 9s 7 13 mph 1026.7mb 53f 54f
4:50pm 15.5ft 11s 9s 9 9 mph 1025.4mb 53f 54f
3:50pm 14.5ft 11s 8s 9 11 mph 1025.1mb 53f 54f
2:50pm 14ft 11s 8s 9 11 mph 1024mb 53f 55f
1:50pm 15ft 11s 9s 9 13 mph 1023.1mb 53f 54f
12:50pm 13ft 11s 8s 9 11 mph 1022.5mb 53f 54f
11:50am 13ft 11s 8s 11 13 mph 1021mb 52f 54f
10:50am 13ft 11s 8s 22 29 mph 1019.9mb 52f 54f
9:50am 13ft 10s 8s 11 13 mph 1018.5mb 52f 56f
8:50am 12.5ft 11s 8s 9 13 mph 1017.1mb 52f 55f
7:50am 11ft 11s 8s 13 16 mph 1015.7mb 52f 56f
6:50am 11.5ft 11s 8s 13 18 mph 1014mb 52f 56f
5:50am 13.5ft 11s 8s 18 22 mph 1012.3mb 52f 56f
4:50am 15ft 11s 8s 18 22 mph 1010.9mb 53f 56f
3:50am 13.5ft 10s 8s 18 22 mph 1009.4mb 53f 56f
2:50am 13.5ft 10s 7s 22 31 mph 1007.9mb 53f 57f
1:50am 14.5ft 10s 8s 20 27 mph 1006.6mb 53f 55f
12:50am 15ft 10s 8s 22 27 mph 1004.8mb 53f 56f
Sat 10/21 11:50pm 15ft 11s 8s 18 22 mph 1004.1mb 53f 55f
10:50pm 15ft 11s 8s 16 18 mph 1003.6mb 52f 56f
9:50pm 13ft 11s 8s 16 18 mph 1003.3mb 52f 56f
8:50pm 14.5ft 10s 8s 18 20 mph 1002.5mb 52f 56f
7:50pm 13ft 10s 7s 20 25 mph 1001.8mb 52f 56f
5:50pm 11ft 10s 7s 25 27 mph 1000.4mb 52f 56f
4:50pm 10.5ft 10s 7s 25 29 mph 999.9mb 52f 56f
3:50pm 11.5ft 11s 8s 25 31 mph 999.7mb 52f 52f
2:50pm 12ft 10s 8s 25 29 mph 1000.9mb 53f 50f
1:50pm 12ft 10s 8s 22 27 mph 1002.5mb 52f 51f
12:50pm 12ft 10s 8s 16 20 mph 1003.4mb 52f 52f
11:50am 13.5ft 10s 8s 18 22 mph 1003.6mb 52f 51f
10:50am 12ft 10s 7s 18 22 mph 1003.8mb 52f 52f
9:50am 14.5ft 9s 8s 22 27 mph 1003.4mb 52f 51f
8:50am 13.5ft 13s 7s 25 29 mph 1002.8mb 52f 51f
7:50am 14.5ft 7s 7s 34 40 mph 1001.6mb 52f 49f
6:50am 12ft 13s 7s 34 43 mph 1001.8mb 53f 49f
5:50am 12ft 13s 7s 36 45 mph 1001.8mb 53f 48f
4:50am 13ft 14s 8s 31 40 mph 1003.5mb 53f 49f
3:50am 11ft 14s 7s 29 36 mph 1005.3mb 53f 51f
2:50am 11ft 13s 8s 22 29 mph 1006.9mb 53f 52f
1:50am 12ft 13s 8s 25 29 mph 1007.7mb 53f 52f
12:50am 11ft 15s 9s 25 31 mph 1008.4mb 53f 51f
Fri 10/20 11:50pm 12ft 15s 9s 20 25 mph 1009.5mb 53f 51f
10:50pm 12ft 15s 8s 18 22 mph 1010.4mb 53f 51f
9:50pm 13.5ft 15s 9s 20 25 mph 1010.7mb 53f 51f
8:50pm 13ft 13s 9s 18 22 mph 1010.9mb 53f 51f
7:50pm 15ft 15s 10s 16 20 mph 1011.1mb 53f 52f
6:50pm 16.5ft 14s 10s 13 18 mph 1011mb 53f 52f
5:50pm 15.5ft 13s 10s 16 18 mph 1010.8mb 54f 53f
4:50pm 16.5ft 15s 10s 11 13 mph 1010.3mb 54f 53f
3:50pm 15ft 14s 9s 11 16 mph 1009.5mb 53f 53f
2:50pm 15.5ft 15s 9s 4 9 mph 1009mb 53f 52f
1:50pm 15.5ft 15s 10s 11 16 mph 1008.5mb 53f 52f
12:50pm 15.5ft 15s 10s 11 18 mph 1007.9mb 53f 51f
11:50am 14.5ft 15s 10s 16 22 mph 1006.8mb 53f 51f
10:50am 14ft 16s 10s 13 16 mph 1005.8mb 53f 52f
9:50am 14.5ft 15s 10s 11 16 mph 1004.9mb 53f 51f
8:50am 14ft 17s 9s 18 25 mph 1003.7mb 53f 51f
7:50am 15ft 16s 10s 20 25 mph 1002.8mb 53f 52f
6:50am 17.5ft 16s 11s 13 18 mph 1002.2mb 53f 53f
5:50am 15ft 15s 10s 9 13 mph 1001.4mb 53f 53f
4:50am 17ft 17s 11s 16 27 mph 1000.5mb 53f 54f
3:50am 17ft 14s 11s 4 7 mph 1000.2mb 53f 53f
2:50am 16.5ft 15s 10s 4 11 mph 1000mb 53f 53f
1:50am 20.5ft 17s 11s 7 11 mph 999.6mb 53f 52f
12:50am 16.5ft 17s 10s 9 13 mph 999.4mb 53f 53f
Thu 10/19 11:50pm 17ft 16s 10s 7 11 mph 999.4mb 53f 53f
10:50pm 19ft 17s 10s 2 7 mph 999.1mb 53f 51f
9:50pm 21.5ft 16s 11s 2 7 mph 998.7mb 53f 51f
8:50pm 19.5ft 16s 11s 4 9 mph 998mb 53f 51f
7:50pm 18.5ft 16s 10s 7 11 mph 997.6mb 53f 51f